createdAt,value
2022-12-17T00:02:27.361Z,23.88
2022-12-17T00:05:12.651Z,23.13
2022-12-17T00:07:58.298Z,22.30
2022-12-17T00:10:43.918Z,22.00
2022-12-17T00:13:41.128Z,23.92
2022-12-17T00:16:26.971Z,22.83
2022-12-17T00:19:12.168Z,24.08
2022-12-17T00:21:57.683Z,23.63
2022-12-17T00:24:43.235Z,22.08
2022-12-17T00:27:28.471Z,25.30
2022-12-17T00:30:13.976Z,24.73
2022-12-17T00:32:59.454Z,19.80
2022-12-17T00:35:44.980Z,19.63
2022-12-17T00:38:37.690Z,20.23
2022-12-17T00:41:23.617Z,20.80
2022-12-17T00:44:09.035Z,21.67
2022-12-17T00:46:55.147Z,20.70
2022-12-17T00:49:40.900Z,20.60
2022-12-17T00:52:26.418Z,23.20
2022-12-17T00:55:11.847Z,21.02
2022-12-17T00:57:57.361Z,19.70
2022-12-17T01:00:42.972Z,20.60
2022-12-17T01:03:31.453Z,22.98
2022-12-17T01:06:21.926Z,23.38
2022-12-17T01:09:07.514Z,23.15
2022-12-17T01:11:53.064Z,22.55
2022-12-17T01:14:43.480Z,18.98
2022-12-17T01:17:29.720Z,21.17
2022-12-17T01:20:15.411Z,25.15
2022-12-17T01:23:00.859Z,22.77
2022-12-17T01:25:46.357Z,19.98
2022-12-17T01:28:31.887Z,22.55
2022-12-17T01:31:17.606Z,21.40
2022-12-17T01:34:02.876Z,21.15
2022-12-17T01:36:48.281Z,23.65
2022-12-17T01:39:33.811Z,21.52
2022-12-17T01:42:19.247Z,19.52
2022-12-17T01:45:13.331Z,19.95
2022-12-17T01:48:14.926Z,23.67
2022-12-17T01:51:07.485Z,20.88
2022-12-17T01:53:57.188Z,23.65
2022-12-17T01:56:42.833Z,21.70
2022-12-17T01:59:30.378Z,21.70
2022-12-17T02:02:16.059Z,19.40
2022-12-17T02:05:02.359Z,17.85
2022-12-17T02:08:13.649Z,21.13
2022-12-17T02:11:18.554Z,22.80
2022-12-17T02:14:29.230Z,20.55
2022-12-17T02:17:21.475Z,19.02
2022-12-17T02:20:43.188Z,21.17
2022-12-17T02:23:39.299Z,19.75
2022-12-17T02:26:49.667Z,17.10
2022-12-17T02:29:37.808Z,18.27
2022-12-17T02:32:26.058Z,20.55
2022-12-17T02:35:11.950Z,19.08
2022-12-17T02:37:57.648Z,19.50
2022-12-17T02:40:44.254Z,21.33
2022-12-17T02:43:30.141Z,21.48
2022-12-17T02:46:15.710Z,22.30
2022-12-17T02:49:02.088Z,18.75
2022-12-17T02:51:48.043Z,18.33
2022-12-17T02:54:33.574Z,18.13
2022-12-17T02:57:19.224Z,21.02
2022-12-17T03:00:04.851Z,21.52
2022-12-17T03:02:50.638Z,17.33
2022-12-17T03:05:45.093Z,16.10
2022-12-17T03:08:31.818Z,18.98
2022-12-17T03:11:17.571Z,19.67
2022-12-17T03:14:03.355Z,18.92
2022-12-17T03:16:49.114Z,21.23
2022-12-17T03:19:34.967Z,19.08
2022-12-17T03:22:23.517Z,18.85
2022-12-17T03:25:09.031Z,14.88
2022-12-17T03:27:54.547Z,21.92
2022-12-17T03:30:42.212Z,25.00
2022-12-17T03:33:31.002Z,19.08
2022-12-17T03:36:16.602Z,19.83
2022-12-17T03:39:02.326Z,16.50
2022-12-17T03:41:47.890Z,19.73
2022-12-17T03:44:33.475Z,17.40
2022-12-17T03:47:19.430Z,18.40
2022-12-17T03:50:04.905Z,21.77
2022-12-17T03:52:50.504Z,17.25
2022-12-17T03:55:43.510Z,19.10
2022-12-17T03:58:28.957Z,17.95
2022-12-17T04:01:14.744Z,16.05
2022-12-17T04:04:00.034Z,22.70
2022-12-17T04:06:45.614Z,21.95
2022-12-17T04:09:31.233Z,23.83
2022-12-17T04:12:16.453Z,18.20
2022-12-17T04:15:01.999Z,19.60
2022-12-17T04:17:47.363Z,18.75
2022-12-17T04:20:32.943Z,17.80
2022-12-17T04:23:18.465Z,19.63
2022-12-17T04:26:03.944Z,22.05
2022-12-17T04:28:49.472Z,16.83
2022-12-17T04:31:35.066Z,19.42
2022-12-17T04:34:20.415Z,17.92
2022-12-17T04:37:05.867Z,19.40
2022-12-17T04:39:51.502Z,24.45
2022-12-17T04:42:37.495Z,23.95
2022-12-17T04:45:23.599Z,25.67
2022-12-17T04:48:09.194Z,20.75
2022-12-17T04:50:54.760Z,21.70
2022-12-17T04:53:40.243Z,23.33
2022-12-17T04:56:25.839Z,24.38
2022-12-17T04:59:11.242Z,19.88
2022-12-17T05:01:56.894Z,25.48
2022-12-17T05:04:42.218Z,20.08
2022-12-17T05:07:27.623Z,21.05
2022-12-17T05:10:13.139Z,22.50
2022-12-17T05:12:58.688Z,23.42
2022-12-17T05:15:48.345Z,22.17
2022-12-17T05:18:37.099Z,24.02
2022-12-17T05:21:22.671Z,21.27
2022-12-17T05:24:08.046Z,25.50
2022-12-17T05:26:53.633Z,23.25
2022-12-17T05:29:39.552Z,20.52
2022-12-17T05:32:25.151Z,23.27
2022-12-17T05:35:10.659Z,20.83
2022-12-17T05:37:56.081Z,22.00
2022-12-17T05:40:41.559Z,23.48
2022-12-17T05:43:31.826Z,20.70
2022-12-17T05:46:17.357Z,21.60
2022-12-17T05:49:03.136Z,22.83
2022-12-17T05:51:48.587Z,20.02
2022-12-17T05:54:34.084Z,18.25
2022-12-17T05:57:19.693Z,21.92
2022-12-17T06:00:05.206Z,26.02
2022-12-17T06:02:50.888Z,23.65
2022-12-17T06:05:36.711Z,21.85
2022-12-17T06:08:27.200Z,21.17
2022-12-17T06:11:13.226Z,21.73
2022-12-17T06:13:58.799Z,21.42
2022-12-17T06:16:44.227Z,23.25
2022-12-17T06:19:29.950Z,20.80
2022-12-17T06:22:15.407Z,21.63
2022-12-17T06:25:01.048Z,20.00
2022-12-17T06:27:46.564Z,23.00
2022-12-17T06:30:32.023Z,21.58
2022-12-17T06:33:29.412Z,21.55
2022-12-17T06:36:21.977Z,24.13
2022-12-17T06:39:07.792Z,26.25
2022-12-17T06:41:54.785Z,21.15
2022-12-17T06:44:47.771Z,23.83
2022-12-17T06:47:33.324Z,24.60
2022-12-17T06:50:18.898Z,21.92
2022-12-17T06:53:04.482Z,22.27
2022-12-17T06:55:49.833Z,21.75
2022-12-17T06:58:35.300Z,20.48
2022-12-17T07:01:20.853Z,19.30
2022-12-17T07:04:06.241Z,17.98
2022-12-17T07:06:51.737Z,19.65
2022-12-17T07:09:37.178Z,19.42
2022-12-17T07:12:22.691Z,25.15
2022-12-17T07:15:08.085Z,23.73
2022-12-17T07:17:53.674Z,22.25
2022-12-17T07:20:39.294Z,20.63
2022-12-17T07:23:24.613Z,22.25
2022-12-17T07:26:10.196Z,22.67
2022-12-17T07:28:55.619Z,21.38
2022-12-17T07:31:41.249Z,27.90
2022-12-17T07:34:26.580Z,22.13
2022-12-17T07:37:14.955Z,24.65
2022-12-17T07:40:04.105Z,26.02
2022-12-17T07:42:49.512Z,22.35
2022-12-17T07:45:35.089Z,20.23
2022-12-17T07:48:20.655Z,22.65
2022-12-17T07:51:09.847Z,20.80
2022-12-17T07:53:55.960Z,23.20
2022-12-17T07:56:41.466Z,23.75
2022-12-17T07:59:27.050Z,24.17
2022-12-17T08:02:12.712Z,25.40
2022-12-17T08:04:58.352Z,22.63
2022-12-17T08:07:44.837Z,23.40
2022-12-17T08:10:30.599Z,21.75
2022-12-17T08:13:22.466Z,26.00
2022-12-17T08:16:16.480Z,25.40
2022-12-17T08:19:02.294Z,25.20
2022-12-17T08:21:47.662Z,25.02
2022-12-17T08:24:33.216Z,23.80
2022-12-17T08:27:18.881Z,23.77
2022-12-17T08:30:04.425Z,23.02
2022-12-17T08:32:50.262Z,21.05
2022-12-17T08:35:35.667Z,21.45
2022-12-17T08:38:24.326Z,17.98
2022-12-17T08:41:09.983Z,23.20
2022-12-17T08:43:55.410Z,21.23
2022-12-17T08:48:57.017Z,21.73
2022-12-17T08:51:44.119Z,20.58
2022-12-17T08:54:30.193Z,22.73
2022-12-17T08:57:27.027Z,23.67
2022-12-17T09:00:16.805Z,22.27
2022-12-17T09:03:03.137Z,19.42
2022-12-17T09:05:48.746Z,21.13
2022-12-17T09:08:34.135Z,19.10
2022-12-17T09:11:20.380Z,23.63
2022-12-17T09:14:05.699Z,18.20
2022-12-17T09:16:51.307Z,21.33
2022-12-17T09:19:36.468Z,24.83
2022-12-17T09:22:21.805Z,29.02
2022-12-17T09:25:07.351Z,24.35
2022-12-17T09:27:52.820Z,24.58
2022-12-17T09:30:38.510Z,21.48
2022-12-17T09:33:24.207Z,22.67
2022-12-17T09:36:09.449Z,23.00
2022-12-17T09:38:54.960Z,29.70
2022-12-17T09:41:56.626Z,22.90
2022-12-17T09:45:15.763Z,21.58
2022-12-17T09:48:15.477Z,22.77
2022-12-17T09:51:01.437Z,21.85
2022-12-17T09:54:07.649Z,21.90
2022-12-17T09:56:55.280Z,19.88
2022-12-17T09:59:53.069Z,19.38
2022-12-17T10:02:44.483Z,16.40
2022-12-17T10:05:56.060Z,19.77
2022-12-17T10:08:41.641Z,16.42
2022-12-17T10:11:49.130Z,16.80
2022-12-17T10:14:39.446Z,16.15
2022-12-17T10:17:36.475Z,17.45
2022-12-17T10:20:35.663Z,16.05
2022-12-17T10:23:21.151Z,18.35
2022-12-17T10:26:12.743Z,17.75
2022-12-17T10:28:58.917Z,14.35
2022-12-17T10:31:49.164Z,17.90
2022-12-17T10:34:39.680Z,18.98
2022-12-17T10:37:37.708Z,15.30
2022-12-17T10:40:51.571Z,15.40
2022-12-17T10:43:56.825Z,18.02
2022-12-17T10:46:51.534Z,18.50
2022-12-17T10:49:43.854Z,17.45
2022-12-17T10:52:48.843Z,18.92
2022-12-17T10:55:44.606Z,17.83
2022-12-17T10:58:38.239Z,14.57
2022-12-17T11:01:29.600Z,18.40
2022-12-17T11:04:17.449Z,22.70
2022-12-17T11:07:08.360Z,14.07
2022-12-17T11:13:20.804Z,21.77
2022-12-17T11:16:11.908Z,20.77
2022-12-17T11:19:44.974Z,16.50
2022-12-17T11:22:53.556Z,15.40
2022-12-17T11:26:24.981Z,19.73
2022-12-17T11:29:10.931Z,19.25
2022-12-17T11:32:55.779Z,19.17
2022-12-17T11:36:06.378Z,18.42
2022-12-17T11:39:04.193Z,16.65
2022-12-17T11:42:15.597Z,18.90
2022-12-17T11:45:16.041Z,19.00
2022-12-17T11:48:18.283Z,12.77
2022-12-17T11:51:16.169Z,21.40
2022-12-17T11:54:22.447Z,21.73
2022-12-17T11:57:29.520Z,23.60
2022-12-17T12:00:37.477Z,28.90
2022-12-17T12:04:12.255Z,23.85
2022-12-17T12:07:06.326Z,19.33
2022-12-17T12:10:30.181Z,23.40
2022-12-17T12:14:39.802Z,21.85
2022-12-17T12:17:58.262Z,23.67
2022-12-17T12:21:06.281Z,24.92
2022-12-17T12:24:13.000Z,24.23
2022-12-17T12:27:28.108Z,26.67
2022-12-17T12:30:35.351Z,24.58
2022-12-17T12:34:15.303Z,25.75
2022-12-17T12:37:04.980Z,25.48
2022-12-17T12:40:06.095Z,24.75
2022-12-17T12:43:03.584Z,24.48
2022-12-17T12:46:17.492Z,25.90
2022-12-17T12:49:40.544Z,22.67
2022-12-17T12:52:37.133Z,25.95
2022-12-17T12:55:22.692Z,25.40
2022-12-17T12:58:22.478Z,28.13
2022-12-17T13:01:07.991Z,28.17
2022-12-17T13:04:03.865Z,26.88
2022-12-17T13:06:46.330Z,30.10
2022-12-17T13:09:16.088Z,27.77
2022-12-17T13:11:56.969Z,29.48
2022-12-17T13:14:47.385Z,31.40
2022-12-17T13:17:17.175Z,28.40
2022-12-17T13:20:07.111Z,26.45
2022-12-17T13:22:34.215Z,27.63
2022-12-17T13:25:23.386Z,26.77
2022-12-17T13:27:51.043Z,28.98
2022-12-17T13:30:17.900Z,28.40
2022-12-17T13:32:48.783Z,32.45
2022-12-17T13:35:43.345Z,30.75
2022-12-17T13:38:34.821Z,31.02
2022-12-17T13:41:16.201Z,27.80
2022-12-17T13:43:59.053Z,30.63
2022-12-17T13:46:34.436Z,31.35
2022-12-17T13:49:04.870Z,30.90
2022-12-17T13:51:34.800Z,29.63
2022-12-17T13:54:04.497Z,28.15
2022-12-17T13:56:37.706Z,28.83
2022-12-17T13:59:09.299Z,29.83
2022-12-17T14:01:47.069Z,28.88
2022-12-17T14:04:26.983Z,27.90
2022-12-17T14:06:59.067Z,30.20
2022-12-17T14:09:37.198Z,31.33
2022-12-17T14:12:22.120Z,32.55
2022-12-17T14:15:22.218Z,29.05
2022-12-17T14:17:50.547Z,30.70
2022-12-17T14:20:23.935Z,29.92
2022-12-17T14:22:55.941Z,31.55
2022-12-17T14:25:36.025Z,31.73
2022-12-17T14:28:31.516Z,32.03
2022-12-17T14:31:26.598Z,33.65
2022-12-17T14:34:13.244Z,27.05
2022-12-17T14:36:44.288Z,28.02
2022-12-17T14:39:24.910Z,29.65
2022-12-17T14:42:11.659Z,35.17
2022-12-17T14:45:22.345Z,31.48
2022-12-17T14:48:04.185Z,30.67
2022-12-17T14:50:35.653Z,30.33
2022-12-17T14:53:26.110Z,37.45
2022-12-17T14:55:58.847Z,35.75
2022-12-17T14:58:27.667Z,47.05
2022-12-17T15:01:11.177Z,40.25
2022-12-17T15:03:46.793Z,40.10
2022-12-17T15:06:18.525Z,40.25
2022-12-17T15:08:49.235Z,38.10
2022-12-17T15:13:50.327Z,33.80
2022-12-17T15:16:21.462Z,37.55
2022-12-17T15:18:48.322Z,31.55
2022-12-17T15:21:17.355Z,43.25
2022-12-17T15:23:45.683Z,42.45
2022-12-17T15:26:15.081Z,35.08
2022-12-17T15:28:42.970Z,32.85
2022-12-17T15:31:14.891Z,37.03
2022-12-17T15:33:42.374Z,39.42
2022-12-17T15:36:13.483Z,33.70
2022-12-17T15:38:40.714Z,37.00
2022-12-17T15:41:26.659Z,40.90
2022-12-17T15:43:53.481Z,33.70
2022-12-17T15:46:20.358Z,34.33
2022-12-17T15:48:50.404Z,38.80
2022-12-17T15:51:20.010Z,31.73
2022-12-17T15:53:48.140Z,37.60
2022-12-17T15:56:25.046Z,38.83
2022-12-17T15:58:53.018Z,40.00
2022-12-17T16:01:20.274Z,38.95
2022-12-17T16:03:47.312Z,39.60
2022-12-17T16:06:14.396Z,40.83
2022-12-17T16:08:41.344Z,44.03
2022-12-17T16:11:10.194Z,37.22
2022-12-17T16:13:38.227Z,45.60
2022-12-17T16:16:07.078Z,39.40
2022-12-17T16:18:35.819Z,42.58
2022-12-17T16:21:04.955Z,35.30
2022-12-17T16:23:32.906Z,38.17
2022-12-17T16:26:03.304Z,35.15
2022-12-17T16:28:30.250Z,34.55
2022-12-17T16:31:06.997Z,31.40
2022-12-17T16:33:42.216Z,33.38
2022-12-17T16:36:15.432Z,30.35
2022-12-17T16:38:45.400Z,27.00
2022-12-17T16:41:13.274Z,30.08
2022-12-17T16:43:40.442Z,31.30
2022-12-17T16:46:33.380Z,28.15
2022-12-17T16:49:10.502Z,22.77
2022-12-17T16:51:37.898Z,26.88
2022-12-17T16:54:13.740Z,23.38
2022-12-17T16:56:41.475Z,23.08
2022-12-17T16:59:09.958Z,22.38
2022-12-17T17:01:39.551Z,22.27
2022-12-17T17:04:08.911Z,25.98
2022-12-17T17:06:45.478Z,23.92
2022-12-17T17:09:14.052Z,26.50
2022-12-17T17:11:41.200Z,23.55
2022-12-17T17:14:09.098Z,21.98
2022-12-17T17:16:36.761Z,26.60
2022-12-17T17:19:05.948Z,26.15
2022-12-17T17:21:38.844Z,22.63
2022-12-17T17:24:21.384Z,22.55
2022-12-17T17:26:50.685Z,27.35
2022-12-17T17:29:18.666Z,26.50
2022-12-17T17:34:32.480Z,30.73
2022-12-17T17:36:59.345Z,29.13
2022-12-17T17:39:27.229Z,29.05
2022-12-17T17:41:54.109Z,31.50
2022-12-17T17:44:21.032Z,32.10
2022-12-17T17:46:48.011Z,31.73
2022-12-17T17:49:15.115Z,37.15
2022-12-17T17:54:31.779Z,35.92
2022-12-17T17:56:58.617Z,34.83
2022-12-17T17:59:32.808Z,37.67
2022-12-17T18:02:02.489Z,35.47
2022-12-17T18:04:29.889Z,39.90
2022-12-17T18:09:43.647Z,38.42
2022-12-17T18:12:28.916Z,40.38
2022-12-17T18:17:44.266Z,38.97
2022-12-17T18:20:12.228Z,32.83
2022-12-17T18:22:39.208Z,34.20
2022-12-17T18:25:06.286Z,45.90
2022-12-17T18:27:33.356Z,42.47
2022-12-17T18:30:00.703Z,37.22
2022-12-17T18:32:27.838Z,42.30
2022-12-17T18:34:54.793Z,40.67
2022-12-17T18:37:21.842Z,43.03
2022-12-17T18:40:00.674Z,47.25
2022-12-17T18:42:45.961Z,43.67
2022-12-17T18:45:12.876Z,36.97
2022-12-17T18:47:39.846Z,40.15
2022-12-17T18:50:07.288Z,31.45
2022-12-17T18:52:34.133Z,38.60
2022-12-17T18:55:01.045Z,35.88
2022-12-17T18:57:27.960Z,39.53
2022-12-17T18:59:54.810Z,36.75
2022-12-17T19:02:21.881Z,35.67
2022-12-17T19:04:48.954Z,36.55
2022-12-17T19:07:16.010Z,33.88
2022-12-17T19:09:43.234Z,34.90
2022-12-17T19:12:10.340Z,36.55
2022-12-17T19:14:37.676Z,58.70
2022-12-17T19:17:05.943Z,45.38
2022-12-17T19:19:33.629Z,39.42
2022-12-17T19:22:00.719Z,34.55
2022-12-17T19:24:28.292Z,94.15
2022-12-17T19:27:00.627Z,51.30
2022-12-17T19:29:27.705Z,47.00
2022-12-17T19:31:55.067Z,45.03
2022-12-17T19:34:22.470Z,34.35
2022-12-17T19:36:49.563Z,41.08
2022-12-17T19:39:19.541Z,56.10
2022-12-17T19:41:46.761Z,59.55
2022-12-17T19:44:16.671Z,42.38
2022-12-17T19:46:44.472Z,39.55
2022-12-17T19:49:16.651Z,55.67
2022-12-17T19:51:44.681Z,46.53
2022-12-17T19:54:14.872Z,41.75
2022-12-17T19:56:44.691Z,38.90
2022-12-17T19:59:13.444Z,37.00
2022-12-17T20:01:49.599Z,34.78
2022-12-17T20:04:17.000Z,41.30
2022-12-17T20:06:45.230Z,50.65
2022-12-17T20:09:14.137Z,42.55
2022-12-17T20:11:41.475Z,35.28
2022-12-17T20:14:13.184Z,31.02
2022-12-17T20:16:44.309Z,35.45
2022-12-17T20:19:15.643Z,51.90
2022-12-17T20:21:42.686Z,44.78
2022-12-17T20:24:11.364Z,51.13
2022-12-17T20:26:39.438Z,48.50
2022-12-17T20:29:07.380Z,42.50
2022-12-17T20:31:49.726Z,33.47
2022-12-17T20:34:19.105Z,42.38
2022-12-17T20:36:49.679Z,40.40
2022-12-17T20:39:20.719Z,34.92
2022-12-17T20:41:51.565Z,32.13
2022-12-17T20:44:18.514Z,31.65
2022-12-17T20:46:45.657Z,27.63
2022-12-17T20:49:14.655Z,25.27
2022-12-17T20:51:42.368Z,27.20
2022-12-17T20:54:14.005Z,23.98
2022-12-17T20:56:42.494Z,24.75
2022-12-17T20:59:16.629Z,20.92
2022-12-17T21:01:45.621Z,22.98
2022-12-17T21:04:15.406Z,22.85
2022-12-17T21:06:46.556Z,23.55
2022-12-17T21:09:15.715Z,25.05
2022-12-17T21:11:42.987Z,23.70
2022-12-17T21:14:16.888Z,22.50
2022-12-17T21:16:46.500Z,21.15
2022-12-17T21:19:18.583Z,21.73
2022-12-17T21:21:45.882Z,24.42
2022-12-17T21:24:12.830Z,21.60
2022-12-17T21:26:42.859Z,24.35
2022-12-17T21:29:10.688Z,26.48
2022-12-17T21:31:49.561Z,22.60
2022-12-17T21:34:22.587Z,23.65
2022-12-17T21:36:50.501Z,21.55
2022-12-17T21:39:19.654Z,25.85
2022-12-17T21:42:06.603Z,21.08
2022-12-17T21:44:33.731Z,20.85
2022-12-17T21:47:00.735Z,23.92
2022-12-17T21:49:27.615Z,22.40
2022-12-17T21:51:55.612Z,24.48
2022-12-17T21:54:22.440Z,23.65
2022-12-17T21:56:49.477Z,22.75
2022-12-17T21:59:16.784Z,24.75
2022-12-17T22:01:43.980Z,22.00
2022-12-17T22:04:11.185Z,19.98
2022-12-17T22:06:47.694Z,22.33
2022-12-17T22:09:21.955Z,17.98
2022-12-17T22:12:20.504Z,21.15
2022-12-17T22:14:47.695Z,18.50
2022-12-17T22:17:14.604Z,20.00
2022-12-17T22:19:41.766Z,21.77
2022-12-17T22:22:08.640Z,23.90
2022-12-17T22:24:36.493Z,23.63
2022-12-17T22:27:05.123Z,27.30
2022-12-17T22:29:54.421Z,23.70
2022-12-17T22:32:39.914Z,23.77
2022-12-17T22:36:57.311Z,24.67
2022-12-17T22:43:07.648Z,22.35
2022-12-17T22:44:28.338Z,26.00
2022-12-17T22:44:51.467Z,24.77
2022-12-17T22:46:19.038Z,26.92
2022-12-17T22:48:46.995Z,24.70
2022-12-17T22:51:22.597Z,30.50
2022-12-17T22:53:55.721Z,24.80
2022-12-17T22:56:41.535Z,25.48
2022-12-17T22:59:19.332Z,20.30
2022-12-17T23:01:46.867Z,24.60
2022-12-17T23:04:16.084Z,20.73
2022-12-17T23:06:45.562Z,27.73
2022-12-17T23:09:15.180Z,26.83
2022-12-17T23:11:42.077Z,28.85
2022-12-17T23:14:09.387Z,22.75
2022-12-17T23:16:38.956Z,25.88
2022-12-17T23:19:07.499Z,36.30
2022-12-17T23:21:35.408Z,25.27
2022-12-17T23:24:03.382Z,27.25
2022-12-17T23:26:35.443Z,25.60
2022-12-17T23:29:07.311Z,25.38
2022-12-17T23:31:40.321Z,25.30
2022-12-17T23:34:08.215Z,27.17
2022-12-17T23:36:36.273Z,23.83
2022-12-17T23:39:04.157Z,22.80
2022-12-17T23:41:31.935Z,22.77
2022-12-17T23:43:59.712Z,20.80
2022-12-17T23:46:30.200Z,24.60
2022-12-17T23:48:57.552Z,26.48
2022-12-17T23:51:25.506Z,23.60
2022-12-17T23:53:52.331Z,21.45
2022-12-17T23:56:28.722Z,26.40
2022-12-17T23:58:59.416Z,22.77
